sensor_id;sensor_type;location;lat;lon;timestamp;pressure;altitude;pressure_sealevel;temperature;humidity
30618;BME280;17384;51.214;9.202;2023-06-14T00:00:31;98608.81;;;15.56;46.55
30618;BME280;17384;51.214;9.202;2023-06-14T00:02:56;98629.91;;;15.44;46.95
30618;BME280;17384;51.214;9.202;2023-06-14T00:05:22;98616.72;;;15.41;47.31
30618;BME280;17384;51.214;9.202;2023-06-14T00:07:48;98608.31;;;15.26;47.85
30618;BME280;17384;51.214;9.202;2023-06-14T00:10:14;98619.19;;;15.04;48.71
30618;BME280;17384;51.214;9.202;2023-06-14T00:12:40;98624.00;;;14.97;49.15
30618;BME280;17384;51.214;9.202;2023-06-14T00:15:07;98617.84;;;14.73;50.09
30618;BME280;17384;51.214;9.202;2023-06-14T00:17:36;98624.34;;;14.55;50.89
30618;BME280;17384;51.214;9.202;2023-06-14T00:20:03;98617.06;;;14.44;51.31
30618;BME280;17384;51.214;9.202;2023-06-14T00:22:33;98619.03;;;14.20;52.26
30618;BME280;17384;51.214;9.202;2023-06-14T00:24:59;98618.25;;;13.96;53.80
30618;BME280;17384;51.214;9.202;2023-06-14T00:27:25;98613.09;;;13.83;54.60
30618;BME280;17384;51.214;9.202;2023-06-14T00:29:51;98609.47;;;13.42;56.05
30618;BME280;17384;51.214;9.202;2023-06-14T00:32:18;98611.88;;;13.39;56.47
30618;BME280;17384;51.214;9.202;2023-06-14T00:34:43;98617.31;;;13.15;57.33
30618;BME280;17384;51.214;9.202;2023-06-14T00:37:09;98611.63;;;13.17;57.44
30618;BME280;17384;51.214;9.202;2023-06-14T00:39:34;98621.53;;;13.00;57.89
30618;BME280;17384;51.214;9.202;2023-06-14T00:42:00;98614.66;;;12.74;59.31
30618;BME280;17384;51.214;9.202;2023-06-14T00:44:25;98611.06;;;12.62;59.54
30618;BME280;17384;51.214;9.202;2023-06-14T00:46:51;98619.31;;;12.43;60.36
30618;BME280;17384;51.214;9.202;2023-06-14T00:49:17;98613.50;;;12.40;60.21
30618;BME280;17384;51.214;9.202;2023-06-14T00:51:44;98619.53;;;12.12;61.31
30618;BME280;17384;51.214;9.202;2023-06-14T00:54:10;98618.78;;;12.05;61.53
30618;BME280;17384;51.214;9.202;2023-06-14T00:56:36;98621.06;;;12.08;62.10
30618;BME280;17384;51.214;9.202;2023-06-14T00:59:03;98631.22;;;12.01;62.66
30618;BME280;17384;51.214;9.202;2023-06-14T01:01:28;98622.91;;;11.77;62.92
30618;BME280;17384;51.214;9.202;2023-06-14T01:03:58;98620.78;;;11.79;63.05
30618;BME280;17384;51.214;9.202;2023-06-14T01:06:47;98634.06;;;11.69;63.75
30618;BME280;17384;51.214;9.202;2023-06-14T01:09:43;98629.91;;;11.67;63.80
30618;BME280;17384;51.214;9.202;2023-06-14T01:12:15;98630.03;;;11.53;64.66
30618;BME280;17384;51.214;9.202;2023-06-14T01:14:42;98637.25;;;11.48;64.78
30618;BME280;17384;51.214;9.202;2023-06-14T01:17:08;98629.00;;;11.36;65.07
30618;BME280;17384;51.214;9.202;2023-06-14T01:19:41;98635.84;;;11.21;65.82
30618;BME280;17384;51.214;9.202;2023-06-14T01:22:08;98631.34;;;11.08;66.35
30618;BME280;17384;51.214;9.202;2023-06-14T01:24:34;98627.13;;;10.94;67.04
30618;BME280;17384;51.214;9.202;2023-06-14T01:27:00;98629.44;;;10.90;67.36
30618;BME280;17384;51.214;9.202;2023-06-14T01:29:28;98631.81;;;10.80;67.54
30618;BME280;17384;51.214;9.202;2023-06-14T01:31:58;98634.44;;;10.37;68.64
30618;BME280;17384;51.214;9.202;2023-06-14T01:34:25;98619.84;;;10.31;68.82
30618;BME280;17384;51.214;9.202;2023-06-14T01:36:52;98635.63;;;10.41;68.87
30618;BME280;17384;51.214;9.202;2023-06-14T01:39:20;98628.53;;;10.40;68.91
30618;BME280;17384;51.214;9.202;2023-06-14T01:41:49;98632.06;;;10.40;69.05
30618;BME280;17384;51.214;9.202;2023-06-14T01:44:17;98622.75;;;10.36;69.44
30618;BME280;17384;51.214;9.202;2023-06-14T01:46:43;98625.28;;;10.31;69.61
30618;BME280;17384;51.214;9.202;2023-06-14T01:49:11;98641.16;;;10.28;69.56
30618;BME280;17384;51.214;9.202;2023-06-14T01:51:36;98636.38;;;10.23;69.69
30618;BME280;17384;51.214;9.202;2023-06-14T01:54:01;98635.13;;;10.19;69.78
30618;BME280;17384;51.214;9.202;2023-06-14T01:56:27;98638.66;;;10.13;69.96
30618;BME280;17384;51.214;9.202;2023-06-14T01:58:53;98630.16;;;10.09;70.21
30618;BME280;17384;51.214;9.202;2023-06-14T02:01:19;98622.69;;;10.05;70.60
30618;BME280;17384;51.214;9.202;2023-06-14T02:03:46;98619.16;;;9.98;70.49
30618;BME280;17384;51.214;9.202;2023-06-14T02:06:13;98620.88;;;9.85;70.91
30618;BME280;17384;51.214;9.202;2023-06-14T02:08:41;98623.84;;;9.77;71.24
30618;BME280;17384;51.214;9.202;2023-06-14T02:11:07;98622.91;;;9.52;72.02
30618;BME280;17384;51.214;9.202;2023-06-14T02:13:33;98629.78;;;9.48;72.67
30618;BME280;17384;51.214;9.202;2023-06-14T02:16:00;98623.34;;;9.42;72.64
30618;BME280;17384;51.214;9.202;2023-06-14T02:18:25;98629.19;;;9.33;73.26
30618;BME280;17384;51.214;9.202;2023-06-14T02:20:51;98633.13;;;9.37;72.43
30618;BME280;17384;51.214;9.202;2023-06-14T02:23:17;98632.50;;;9.35;72.44
30618;BME280;17384;51.214;9.202;2023-06-14T02:25:42;98629.19;;;9.33;72.70
30618;BME280;17384;51.214;9.202;2023-06-14T02:28:10;98624.41;;;9.35;73.08
30618;BME280;17384;51.214;9.202;2023-06-14T02:30:35;98626.72;;;9.25;73.43
30618;BME280;17384;51.214;9.202;2023-06-14T02:33:01;98635.47;;;9.13;73.75
30618;BME280;17384;51.214;9.202;2023-06-14T02:35:27;98630.47;;;9.04;74.29
30618;BME280;17384;51.214;9.202;2023-06-14T02:37:53;98632.97;;;9.05;74.05
30618;BME280;17384;51.214;9.202;2023-06-14T02:40:19;98624.25;;;9.03;74.30
30618;BME280;17384;51.214;9.202;2023-06-14T02:42:45;98635.69;;;9.05;74.23
30618;BME280;17384;51.214;9.202;2023-06-14T02:45:10;98631.53;;;9.03;73.52
30618;BME280;17384;51.214;9.202;2023-06-14T02:47:36;98628.63;;;8.91;74.05
30618;BME280;17384;51.214;9.202;2023-06-14T02:50:02;98636.97;;;8.83;74.16
30618;BME280;17384;51.214;9.202;2023-06-14T02:52:28;98626.97;;;8.77;74.33
30618;BME280;17384;51.214;9.202;2023-06-14T02:54:54;98617.41;;;8.74;74.44
30618;BME280;17384;51.214;9.202;2023-06-14T02:57:21;98618.03;;;8.70;74.77
30618;BME280;17384;51.214;9.202;2023-06-14T02:59:47;98620.94;;;8.68;74.34
30618;BME280;17384;51.214;9.202;2023-06-14T03:02:12;98628.22;;;8.68;74.86
30618;BME280;17384;51.214;9.202;2023-06-14T03:04:38;98639.44;;;8.58;75.34
30618;BME280;17384;51.214;9.202;2023-06-14T03:07:03;98635.28;;;8.62;74.94
30618;BME280;17384;51.214;9.202;2023-06-14T03:09:37;98629.66;;;8.51;75.47
30618;BME280;17384;51.214;9.202;2023-06-14T03:12:04;98634.03;;;8.38;76.37
30618;BME280;17384;51.214;9.202;2023-06-14T03:14:31;98645.59;;;8.19;77.24
30618;BME280;17384;51.214;9.202;2023-06-14T03:16:57;98640.00;;;8.27;76.60
30618;BME280;17384;51.214;9.202;2023-06-14T03:19:23;98638.38;;;8.33;76.43
30618;BME280;17384;51.214;9.202;2023-06-14T03:21:48;98637.72;;;8.31;76.00
30618;BME280;17384;51.214;9.202;2023-06-14T03:24:15;98635.41;;;8.14;76.26
30618;BME280;17384;51.214;9.202;2023-06-14T03:26:42;98652.72;;;8.33;76.98
30618;BME280;17384;51.214;9.202;2023-06-14T03:29:07;98637.78;;;8.44;76.59
30618;BME280;17384;51.214;9.202;2023-06-14T03:31:34;98650.66;;;8.55;76.98
30618;BME280;17384;51.214;9.202;2023-06-14T03:34:00;98643.63;;;8.74;77.17
30618;BME280;17384;51.214;9.202;2023-06-14T03:36:26;98645.28;;;8.95;76.02
30618;BME280;17384;51.214;9.202;2023-06-14T03:38:53;98652.16;;;8.91;73.60
30618;BME280;17384;51.214;9.202;2023-06-14T03:41:19;98648.19;;;8.93;73.83
30618;BME280;17384;51.214;9.202;2023-06-14T03:43:45;98662.13;;;8.90;75.31
30618;BME280;17384;51.214;9.202;2023-06-14T03:46:10;98660.88;;;8.86;74.26
30618;BME280;17384;51.214;9.202;2023-06-14T03:48:35;98661.53;;;9.01;75.14
30618;BME280;17384;51.214;9.202;2023-06-14T03:51:01;98666.31;;;8.99;73.95
30618;BME280;17384;51.214;9.202;2023-06-14T03:53:27;98676.69;;;9.15;74.73
30618;BME280;17384;51.214;9.202;2023-06-14T03:55:54;98669.63;;;9.21;73.28
30618;BME280;17384;51.214;9.202;2023-06-14T03:58:20;98675.25;;;9.13;73.99
30618;BME280;17384;51.214;9.202;2023-06-14T04:00:45;98688.56;;;9.14;73.83
30618;BME280;17384;51.214;9.202;2023-06-14T04:03:11;98680.66;;;9.06;74.30
30618;BME280;17384;51.214;9.202;2023-06-14T04:05:39;98690.25;;;9.02;74.07
30618;BME280;17384;51.214;9.202;2023-06-14T04:08:08;98705.22;;;9.11;74.03
30618;BME280;17384;51.214;9.202;2023-06-14T04:10:40;98710.22;;;8.88;75.26
30618;BME280;17384;51.214;9.202;2023-06-14T04:13:06;98711.66;;;9.04;74.82
30618;BME280;17384;51.214;9.202;2023-06-14T04:15:32;98713.13;;;8.93;75.44
30618;BME280;17384;51.214;9.202;2023-06-14T04:17:58;98711.06;;;9.02;75.94
30618;BME280;17384;51.214;9.202;2023-06-14T04:20:24;98720.63;;;9.11;75.72
30618;BME280;17384;51.214;9.202;2023-06-14T04:22:50;98703.94;;;9.34;75.92
30618;BME280;17384;51.214;9.202;2023-06-14T04:25:16;98718.69;;;9.58;74.87
30618;BME280;17384;51.214;9.202;2023-06-14T04:27:42;98719.66;;;9.90;74.97
30618;BME280;17384;51.214;9.202;2023-06-14T04:30:07;98728.31;;;10.18;72.51
30618;BME280;17384;51.214;9.202;2023-06-14T04:32:33;98723.25;;;10.41;72.15
30618;BME280;17384;51.214;9.202;2023-06-14T04:35:03;98724.75;;;10.69;71.58
30618;BME280;17384;51.214;9.202;2023-06-14T04:37:29;98719.22;;;10.89;70.77
30618;BME280;17384;51.214;9.202;2023-06-14T04:39:55;98723.03;;;11.06;69.90
30618;BME280;17384;51.214;9.202;2023-06-14T04:42:21;98725.94;;;11.36;69.35
30618;BME280;17384;51.214;9.202;2023-06-14T04:44:51;98741.81;;;11.57;68.41
30618;BME280;17384;51.214;9.202;2023-06-14T04:47:17;98742.25;;;11.79;67.64
30618;BME280;17384;51.214;9.202;2023-06-14T04:49:43;98740.41;;;11.98;67.12
30618;BME280;17384;51.214;9.202;2023-06-14T04:52:08;98732.09;;;12.29;66.91
30618;BME280;17384;51.214;9.202;2023-06-14T04:54:36;98745.44;;;12.49;66.11
30618;BME280;17384;51.214;9.202;2023-06-14T04:57:04;98738.28;;;12.66;65.75
30618;BME280;17384;51.214;9.202;2023-06-14T04:59:30;98737.44;;;12.96;64.54
30618;BME280;17384;51.214;9.202;2023-06-14T05:01:58;98736.16;;;13.40;63.48
30618;BME280;17384;51.214;9.202;2023-06-14T05:04:25;98746.47;;;13.84;61.78
30618;BME280;17384;51.214;9.202;2023-06-14T05:06:52;98742.16;;;14.23;59.54
30618;BME280;17384;51.214;9.202;2023-06-14T05:09:19;98745.88;;;14.57;59.59
30618;BME280;17384;51.214;9.202;2023-06-14T05:11:45;98744.44;;;14.67;60.32
30618;BME280;17384;51.214;9.202;2023-06-14T05:14:13;98750.19;;;14.82;57.82
30618;BME280;17384;51.214;9.202;2023-06-14T05:16:39;98751.34;;;15.14;56.28
30618;BME280;17384;51.214;9.202;2023-06-14T05:19:05;98750.28;;;15.49;54.69
30618;BME280;17384;51.214;9.202;2023-06-14T05:21:31;98745.25;;;15.74;54.55
30618;BME280;17384;51.214;9.202;2023-06-14T05:23:58;98750.03;;;16.01;53.03
30618;BME280;17384;51.214;9.202;2023-06-14T05:26:24;98752.94;;;16.16;52.69
30618;BME280;17384;51.214;9.202;2023-06-14T05:28:57;98746.28;;;16.29;52.23
30618;BME280;17384;51.214;9.202;2023-06-14T05:31:23;98749.44;;;16.37;52.09
30618;BME280;17384;51.214;9.202;2023-06-14T05:33:49;98750.25;;;16.81;51.13
30618;BME280;17384;51.214;9.202;2023-06-14T05:36:15;98747.56;;;17.13;50.73
30618;BME280;17384;51.214;9.202;2023-06-14T05:38:40;98751.53;;;17.01;50.04
30618;BME280;17384;51.214;9.202;2023-06-14T05:41:06;98748.06;;;17.37;49.99
30618;BME280;17384;51.214;9.202;2023-06-14T05:43:31;98747.75;;;17.34;49.80
30618;BME280;17384;51.214;9.202;2023-06-14T05:45:57;98756.38;;;17.74;49.47
30618;BME280;17384;51.214;9.202;2023-06-14T05:48:22;98748.91;;;17.38;49.04
30618;BME280;17384;51.214;9.202;2023-06-14T05:50:48;98763.84;;;17.84;48.42
30618;BME280;17384;51.214;9.202;2023-06-14T05:53:13;98768.84;;;17.92;49.39
30618;BME280;17384;51.214;9.202;2023-06-14T05:55:38;98766.88;;;17.87;47.35
30618;BME280;17384;51.214;9.202;2023-06-14T05:58:04;98764.47;;;17.64;48.05
30618;BME280;17384;51.214;9.202;2023-06-14T06:00:29;98770.66;;;17.81;48.72
30618;BME280;17384;51.214;9.202;2023-06-14T06:02:55;98776.84;;;17.99;46.96
30618;BME280;17384;51.214;9.202;2023-06-14T06:05:23;98769.03;;;17.53;48.71
30618;BME280;17384;51.214;9.202;2023-06-14T06:07:49;98770.22;;;17.31;48.23
30618;BME280;17384;51.214;9.202;2023-06-14T06:10:14;98779.19;;;17.53;48.23
30618;BME280;17384;51.214;9.202;2023-06-14T06:12:41;98767.22;;;17.64;48.91
30618;BME280;17384;51.214;9.202;2023-06-14T06:15:07;98773.56;;;18.02;48.21
30618;BME280;17384;51.214;9.202;2023-06-14T06:17:33;98775.88;;;18.20;48.15
30618;BME280;17384;51.214;9.202;2023-06-14T06:19:58;98770.88;;;18.12;46.85
30618;BME280;17384;51.214;9.202;2023-06-14T06:22:24;98776.72;;;17.83;47.82
30618;BME280;17384;51.214;9.202;2023-06-14T06:24:49;98775.06;;;17.82;48.15
30618;BME280;17384;51.214;9.202;2023-06-14T06:27:15;98776.38;;;18.12;47.73
30618;BME280;17384;51.214;9.202;2023-06-14T06:29:42;98772.94;;;18.37;48.03
30618;BME280;17384;51.214;9.202;2023-06-14T06:32:09;98772.81;;;18.64;46.25
30618;BME280;17384;51.214;9.202;2023-06-14T06:34:34;98791.63;;;18.87;45.54
30618;BME280;17384;51.214;9.202;2023-06-14T06:37:02;98790.69;;;18.19;46.29
30618;BME280;17384;51.214;9.202;2023-06-14T06:39:28;98790.56;;;17.99;47.51
30618;BME280;17384;51.214;9.202;2023-06-14T06:41:53;98790.44;;;18.20;47.45
30618;BME280;17384;51.214;9.202;2023-06-14T06:44:18;98789.16;;;18.38;47.60
30618;BME280;17384;51.214;9.202;2023-06-14T06:46:44;98791.63;;;18.92;45.04
30618;BME280;17384;51.214;9.202;2023-06-14T06:49:09;98797.88;;;18.72;45.63
30618;BME280;17384;51.214;9.202;2023-06-14T06:51:37;98797.91;;;18.77;45.78
30618;BME280;17384;51.214;9.202;2023-06-14T06:54:02;98804.94;;;19.36;44.59
30618;BME280;17384;51.214;9.202;2023-06-14T06:56:28;98794.09;;;18.83;46.08
30618;BME280;17384;51.214;9.202;2023-06-14T06:58:53;98816.66;;;18.43;46.88
30618;BME280;17384;51.214;9.202;2023-06-14T07:01:19;98814.81;;;18.12;47.04
30618;BME280;17384;51.214;9.202;2023-06-14T07:03:45;98816.84;;;18.26;47.47
30618;BME280;17384;51.214;9.202;2023-06-14T07:06:11;98828.47;;;18.44;46.37
30618;BME280;17384;51.214;9.202;2023-06-14T07:08:37;98828.47;;;18.86;45.21
30618;BME280;17384;51.214;9.202;2023-06-14T07:11:04;98820.22;;;18.86;47.32
30618;BME280;17384;51.214;9.202;2023-06-14T07:13:30;98834.47;;;18.78;45.93
30618;BME280;17384;51.214;9.202;2023-06-14T07:15:58;98819.91;;;18.77;45.41
30618;BME280;17384;51.214;9.202;2023-06-14T07:18:23;98824.81;;;18.70;46.49
30618;BME280;17384;51.214;9.202;2023-06-14T07:20:49;98828.47;;;18.91;45.97
30618;BME280;17384;51.214;9.202;2023-06-14T07:23:15;98812.13;;;19.42;44.66
30618;BME280;17384;51.214;9.202;2023-06-14T07:25:40;98823.19;;;19.62;44.10
30618;BME280;17384;51.214;9.202;2023-06-14T07:28:06;98825.94;;;19.62;45.84
30618;BME280;17384;51.214;9.202;2023-06-14T07:30:32;98816.56;;;19.53;44.14
30618;BME280;17384;51.214;9.202;2023-06-14T07:32:57;98813.91;;;18.96;45.55
30618;BME280;17384;51.214;9.202;2023-06-14T07:35:23;98812.81;;;18.97;45.91
30618;BME280;17384;51.214;9.202;2023-06-14T07:37:48;98819.00;;;18.67;45.96
30618;BME280;17384;51.214;9.202;2023-06-14T07:40:15;98820.47;;;18.89;45.83
30618;BME280;17384;51.214;9.202;2023-06-14T07:42:40;98825.16;;;18.89;45.20
30618;BME280;17384;51.214;9.202;2023-06-14T07:45:06;98829.09;;;19.18;44.21
30618;BME280;17384;51.214;9.202;2023-06-14T07:47:32;98828.94;;;19.71;44.49
30618;BME280;17384;51.214;9.202;2023-06-14T07:49:57;98830.88;;;20.21;43.71
30618;BME280;17384;51.214;9.202;2023-06-14T07:52:23;98839.69;;;20.38;43.33
30618;BME280;17384;51.214;9.202;2023-06-14T07:54:49;98823.19;;;19.62;43.64
30618;BME280;17384;51.214;9.202;2023-06-14T07:57:14;98821.41;;;19.10;44.39
30618;BME280;17384;51.214;9.202;2023-06-14T07:59:40;98816.06;;;18.36;46.01
30618;BME280;17384;51.214;9.202;2023-06-14T08:02:06;98810.09;;;18.49;46.99
30618;BME280;17384;51.214;9.202;2023-06-14T08:04:31;98816.72;;;19.16;45.60
30618;BME280;17384;51.214;9.202;2023-06-14T08:06:57;98817.94;;;19.76;44.56
30618;BME280;17384;51.214;9.202;2023-06-14T08:11:52;98820.97;;;20.05;42.85
30618;BME280;17384;51.214;9.202;2023-06-14T08:14:17;98822.06;;;19.99;43.06
30618;BME280;17384;51.214;9.202;2023-06-14T08:16:42;98828.41;;;20.09;42.91
30618;BME280;17384;51.214;9.202;2023-06-14T08:19:08;98828.69;;;19.82;43.83
30618;BME280;17384;51.214;9.202;2023-06-14T08:21:33;98827.78;;;19.36;45.02
30618;BME280;17384;51.214;9.202;2023-06-14T08:24:01;98836.94;;;19.77;43.18
30618;BME280;17384;51.214;9.202;2023-06-14T08:26:27;98825.91;;;20.43;42.42
30618;BME280;17384;51.214;9.202;2023-06-14T08:28:57;98831.50;;;21.03;41.46
30618;BME280;17384;51.214;9.202;2023-06-14T08:31:22;98826.09;;;20.72;40.92
30618;BME280;17384;51.214;9.202;2023-06-14T08:33:48;98828.13;;;20.01;40.89
30618;BME280;17384;51.214;9.202;2023-06-14T08:36:14;98835.63;;;18.87;45.27
30618;BME280;17384;51.214;9.202;2023-06-14T08:38:39;98849.31;;;19.75;43.87
30618;BME280;17384;51.214;9.202;2023-06-14T08:41:05;98842.19;;;19.89;43.03
30618;BME280;17384;51.214;9.202;2023-06-14T08:43:31;98841.00;;;19.44;44.58
30618;BME280;17384;51.214;9.202;2023-06-14T08:46:00;98837.09;;;19.20;45.57
30618;BME280;17384;51.214;9.202;2023-06-14T08:48:28;98833.75;;;19.08;45.20
30618;BME280;17384;51.214;9.202;2023-06-14T08:50:59;98824.81;;;19.73;44.27
30618;BME280;17384;51.214;9.202;2023-06-14T08:53:31;98840.41;;;20.79;41.38
30618;BME280;17384;51.214;9.202;2023-06-14T08:55:58;98848.06;;;21.03;40.83
30618;BME280;17384;51.214;9.202;2023-06-14T08:58:30;98841.03;;;21.75;39.32
30618;BME280;17384;51.214;9.202;2023-06-14T09:00:57;98851.28;;;22.08;38.76
30618;BME280;17384;51.214;9.202;2023-06-14T09:03:23;98853.22;;;21.24;39.55
30618;BME280;17384;51.214;9.202;2023-06-14T09:05:58;98844.88;;;20.60;41.40
30618;BME280;17384;51.214;9.202;2023-06-14T09:08:28;98846.69;;;20.95;40.47
30618;BME280;17384;51.214;9.202;2023-06-14T09:10:56;98846.69;;;21.54;40.23
30618;BME280;17384;51.214;9.202;2023-06-14T09:13:22;98849.13;;;21.07;40.34
30618;BME280;17384;51.214;9.202;2023-06-14T09:15:47;98865.94;;;21.20;41.86
30618;BME280;17384;51.214;9.202;2023-06-14T09:18:13;98864.25;;;21.30;41.17
30618;BME280;17384;51.214;9.202;2023-06-14T09:20:38;98852.22;;;20.90;40.88
30618;BME280;17384;51.214;9.202;2023-06-14T09:23:05;98849.72;;;20.93;41.36
30618;BME280;17384;51.214;9.202;2023-06-14T09:25:30;98862.31;;;21.69;40.50
30618;BME280;17384;51.214;9.202;2023-06-14T09:27:56;98863.53;;;21.92;38.50
30618;BME280;17384;51.214;9.202;2023-06-14T09:30:21;98870.09;;;22.40;37.52
30618;BME280;17384;51.214;9.202;2023-06-14T09:32:47;98857.38;;;22.10;38.48
30618;BME280;17384;51.214;9.202;2023-06-14T09:35:20;98863.28;;;21.88;39.73
30618;BME280;17384;51.214;9.202;2023-06-14T09:37:47;98862.16;;;22.57;38.39
30618;BME280;17384;51.214;9.202;2023-06-14T09:40:12;98859.84;;;22.70;38.13
30618;BME280;17384;51.214;9.202;2023-06-14T09:42:38;98866.00;;;22.61;37.62
30618;BME280;17384;51.214;9.202;2023-06-14T09:45:04;98866.91;;;22.23;37.51
30618;BME280;17384;51.214;9.202;2023-06-14T09:47:30;98855.59;;;21.85;37.66
30618;BME280;17384;51.214;9.202;2023-06-14T09:49:55;98870.03;;;21.72;39.36
30618;BME280;17384;51.214;9.202;2023-06-14T09:52:21;98856.06;;;20.94;40.57
30618;BME280;17384;51.214;9.202;2023-06-14T09:54:48;98848.16;;;21.81;38.49
30618;BME280;17384;51.214;9.202;2023-06-14T09:57:21;98851.56;;;22.41;38.37
30618;BME280;17384;51.214;9.202;2023-06-14T09:59:48;98855.66;;;22.43;37.99
30618;BME280;17384;51.214;9.202;2023-06-14T10:02:28;98860.41;;;21.65;38.74
30618;BME280;17384;51.214;9.202;2023-06-14T10:05:05;98857.16;;;21.03;40.39
30618;BME280;17384;51.214;9.202;2023-06-14T10:07:55;98851.47;;;21.39;39.21
30618;BME280;17384;51.214;9.202;2023-06-14T10:10:21;98854.06;;;22.08;38.72
30618;BME280;17384;51.214;9.202;2023-06-14T10:12:47;98853.63;;;22.25;38.23
30618;BME280;17384;51.214;9.202;2023-06-14T10:15:20;98852.13;;;23.14;37.13
30618;BME280;17384;51.214;9.202;2023-06-14T10:18:19;98856.78;;;23.19;35.30
30618;BME280;17384;51.214;9.202;2023-06-14T10:21:02;98852.50;;;22.84;37.05
30618;BME280;17384;51.214;9.202;2023-06-14T10:23:35;98847.25;;;22.82;35.94
30618;BME280;17384;51.214;9.202;2023-06-14T10:26:02;98857.38;;;22.92;36.59
30618;BME280;17384;51.214;9.202;2023-06-14T10:28:28;98855.31;;;22.21;36.31
30618;BME280;17384;51.214;9.202;2023-06-14T10:31:09;98844.97;;;22.03;36.59
30618;BME280;17384;51.214;9.202;2023-06-14T10:33:40;98847.75;;;22.03;37.11
30618;BME280;17384;51.214;9.202;2023-06-14T10:41:37;98839.78;;;22.83;36.20
30618;BME280;17384;51.214;9.202;2023-06-14T10:46:49;98847.47;;;22.62;35.85
30618;BME280;17384;51.214;9.202;2023-06-14T10:49:18;98842.84;;;22.76;35.30
30618;BME280;17384;51.214;9.202;2023-06-14T10:51:46;98835.47;;;23.19;34.74
30618;BME280;17384;51.214;9.202;2023-06-14T10:54:15;98829.09;;;23.94;34.30
30618;BME280;17384;51.214;9.202;2023-06-14T10:56:48;98828.75;;;23.63;34.11
30618;BME280;17384;51.214;9.202;2023-06-14T10:59:14;98825.97;;;23.44;34.47
30618;BME280;17384;51.214;9.202;2023-06-14T11:04:49;98843.03;;;22.61;36.03
30618;BME280;17384;51.214;9.202;2023-06-14T11:10:39;98827.44;;;21.39;37.49
30618;BME280;17384;51.214;9.202;2023-06-14T11:13:06;98837.22;;;21.16;38.51
30618;BME280;17384;51.214;9.202;2023-06-14T11:15:35;98835.13;;;21.47;38.75
30618;BME280;17384;51.214;9.202;2023-06-14T11:18:02;98832.59;;;21.56;37.70
30618;BME280;17384;51.214;9.202;2023-06-14T11:20:30;98840.53;;;21.18;39.33
30618;BME280;17384;51.214;9.202;2023-06-14T11:22:56;98839.31;;;21.40;37.86
30618;BME280;17384;51.214;9.202;2023-06-14T11:25:22;98835.50;;;22.43;35.46
30618;BME280;17384;51.214;9.202;2023-06-14T11:27:52;98828.59;;;22.69;33.62
30618;BME280;17384;51.214;9.202;2023-06-14T11:30:18;98821.25;;;23.45;34.17
30618;BME280;17384;51.214;9.202;2023-06-14T11:32:50;98811.16;;;23.54;32.69
30618;BME280;17384;51.214;9.202;2023-06-14T11:35:18;98831.16;;;23.70;33.50
30618;BME280;17384;51.214;9.202;2023-06-14T11:37:43;98823.78;;;23.41;33.75
30618;BME280;17384;51.214;9.202;2023-06-14T11:40:13;98826.91;;;23.16;34.12
30618;BME280;17384;51.214;9.202;2023-06-14T11:42:40;98812.16;;;23.02;35.55
30618;BME280;17384;51.214;9.202;2023-06-14T11:45:10;98816.00;;;22.82;34.06
30618;BME280;17384;51.214;9.202;2023-06-14T11:47:37;98826.25;;;22.81;34.13
30618;BME280;17384;51.214;9.202;2023-06-14T11:50:04;98822.09;;;23.03;34.26
30618;BME280;17384;51.214;9.202;2023-06-14T11:52:31;98809.09;;;22.55;35.10
30618;BME280;17384;51.214;9.202;2023-06-14T11:54:57;98809.78;;;22.42;35.11
30618;BME280;17384;51.214;9.202;2023-06-14T11:57:23;98827.56;;;22.60;33.74
30618;BME280;17384;51.214;9.202;2023-06-14T11:59:49;98813.22;;;22.58;32.53
30618;BME280;17384;51.214;9.202;2023-06-14T12:02:15;98804.41;;;23.41;34.31
30618;BME280;17384;51.214;9.202;2023-06-14T12:04:42;98813.66;;;23.13;32.59
30618;BME280;17384;51.214;9.202;2023-06-14T12:07:11;98801.84;;;23.07;33.59
30618;BME280;17384;51.214;9.202;2023-06-14T12:12:23;98817.34;;;22.03;34.92
30618;BME280;17384;51.214;9.202;2023-06-14T12:14:51;98811.88;;;22.26;35.35
30618;BME280;17384;51.214;9.202;2023-06-14T12:17:17;98800.97;;;22.40;33.72
30618;BME280;17384;51.214;9.202;2023-06-14T12:19:44;98797.97;;;22.37;35.05
30618;BME280;17384;51.214;9.202;2023-06-14T12:22:11;98801.91;;;22.54;35.30
30618;BME280;17384;51.214;9.202;2023-06-14T12:24:37;98806.31;;;22.55;35.08
30618;BME280;17384;51.214;9.202;2023-06-14T12:27:03;98800.78;;;22.03;34.21
30618;BME280;17384;51.214;9.202;2023-06-14T12:29:29;98811.75;;;22.66;34.70
30618;BME280;17384;51.214;9.202;2023-06-14T12:31:55;98802.16;;;23.24;33.76
30618;BME280;17384;51.214;9.202;2023-06-14T12:34:25;98798.59;;;23.61;33.52
30618;BME280;17384;51.214;9.202;2023-06-14T12:36:53;98812.34;;;22.62;33.28
30618;BME280;17384;51.214;9.202;2023-06-14T12:39:19;98801.72;;;22.17;33.51
30618;BME280;17384;51.214;9.202;2023-06-14T12:41:44;98793.28;;;22.85;33.18
30618;BME280;17384;51.214;9.202;2023-06-14T12:44:11;98803.47;;;23.08;33.04
30618;BME280;17384;51.214;9.202;2023-06-14T12:46:37;98806.75;;;23.72;32.48
30618;BME280;17384;51.214;9.202;2023-06-14T12:49:05;98799.50;;;24.22;32.09
30618;BME280;17384;51.214;9.202;2023-06-14T12:51:31;98808.41;;;24.65;30.40
30618;BME280;17384;51.214;9.202;2023-06-14T12:53:56;98804.72;;;24.42;30.48
30618;BME280;17384;51.214;9.202;2023-06-14T12:56:22;98804.94;;;24.59;30.07
30618;BME280;17384;51.214;9.202;2023-06-14T12:58:47;98803.91;;;24.83;30.54
30618;BME280;17384;51.214;9.202;2023-06-14T13:01:13;98821.69;;;23.89;30.56
30618;BME280;17384;51.214;9.202;2023-06-14T13:03:39;98802.44;;;23.98;31.64
30618;BME280;17384;51.214;9.202;2023-06-14T13:06:05;98787.56;;;24.68;30.32
30618;BME280;17384;51.214;9.202;2023-06-14T13:08:30;98810.59;;;24.54;30.31
30618;BME280;17384;51.214;9.202;2023-06-14T13:10:56;98794.16;;;23.79;31.22
30618;BME280;17384;51.214;9.202;2023-06-14T13:13:23;98803.94;;;23.90;32.57
30618;BME280;17384;51.214;9.202;2023-06-14T13:15:48;98805.06;;;23.89;32.23
30618;BME280;17384;51.214;9.202;2023-06-14T13:18:15;98793.69;;;24.37;30.85
30618;BME280;17384;51.214;9.202;2023-06-14T13:20:41;98802.97;;;24.74;31.37